Time;durP1;ratioP1;P1;durP2;ratioP2;P2;SDS_P1;SDS_P2;PMS_P1;PMS_P2;Temp;Humidity;BMP_temperature;BMP_pressure;BME280_temperature;BME280_humidity;BME280_pressure;Samples;Min_cycle;Max_cycle;Signal;HPM_P1;HPM_P2
2022/09/10 00:02:19;;;;;;;7.47;4.40;;;15.70;99.90;;;;;;5051509;28;20040;-70
2022/09/10 00:04:45;;;;;;;7.32;4.55;;;15.70;99.90;;;;;;5052737;28;20025;-71
2022/09/10 00:07:11;;;;;;;12.63;6.03;;;15.70;99.90;;;;;;5050882;28;20496;-71
2022/09/10 00:09:36;;;;;;;6.82;5.32;;;15.70;99.90;;;;;;5052488;28;20481;-70
2022/09/10 00:12:02;;;;;;;11.00;5.07;;;15.80;99.90;;;;;;5052437;28;20048;-71
2022/09/10 00:14:28;;;;;;;6.82;4.40;;;15.70;99.90;;;;;;5049252;28;20044;-71
2022/09/10 00:16:54;;;;;;;12.23;5.40;;;15.80;99.90;;;;;;5040788;28;20048;-71
2022/09/10 00:19:20;;;;;;;7.22;4.40;;;15.80;99.90;;;;;;5051699;28;20033;-71
2022/09/10 00:21:46;;;;;;;11.20;4.95;;;15.80;99.90;;;;;;5045206;28;20363;-70
2022/09/10 00:24:12;;;;;;;13.63;6.20;;;15.80;99.90;;;;;;5051605;28;20083;-71
2022/09/10 00:26:38;;;;;;;14.63;5.97;;;15.80;99.90;;;;;;5052151;28;20100;-71
2022/09/10 00:29:09;;;;;;;10.20;5.35;;;15.80;99.90;;;;;;5052124;28;20029;-70
2022/09/10 00:31:36;;;;;;;9.85;6.15;;;15.70;99.90;;;;;;5051749;28;20124;-71
2022/09/10 00:34:02;;;;;;;13.02;5.72;;;15.70;99.90;;;;;;5050577;28;20083;-71
2022/09/10 00:36:35;;;;;;;9.07;5.85;;;15.60;99.90;;;;;;5051775;28;20044;-71
2022/09/10 00:39:04;;;;;;;13.18;6.82;;;15.60;99.90;;;;;;5051701;28;20111;-71
2022/09/10 00:41:32;;;;;;;13.00;6.45;;;15.60;99.90;;;;;;5051692;28;20028;-71
2022/09/10 00:44:03;;;;;;;10.88;6.47;;;15.60;99.90;;;;;;5050358;28;20029;-70
2022/09/10 00:46:47;;;;;;;9.98;7.30;;;15.70;99.90;;;;;;5051247;28;20176;-71
2022/09/10 00:49:25;;;;;;;14.10;8.40;;;15.60;99.90;;;;;;5050877;28;20385;-71
2022/09/10 00:51:52;;;;;;;15.90;9.18;;;16.30;99.90;;;;;;5049562;28;20092;-71
2022/09/10 00:54:22;;;;;;;12.20;8.40;;;15.70;99.90;;;;;;5049817;28;20025;-71
2022/09/10 00:56:49;;;;;;;12.93;9.73;;;15.60;99.90;;;;;;5051156;28;20447;-71
2022/09/10 00:59:17;;;;;;;15.20;9.98;;;15.90;99.90;;;;;;5050085;28;20100;-70
2022/09/10 01:01:44;;;;;;;15.40;9.45;;;15.70;99.90;;;;;;5051229;28;20078;-71
2022/09/10 01:04:09;;;;;;;11.23;10.07;;;15.80;99.90;;;;;;5050592;28;20032;-71
2022/09/10 01:06:38;;;;;;;15.02;9.45;;;15.80;99.90;;;;;;5051001;28;20028;-71
2022/09/10 01:09:05;;;;;;;15.68;11.07;;;15.90;99.90;;;;;;5050712;28;20037;-70
2022/09/10 01:12:01;;;;;;;17.80;9.73;;;15.80;99.90;;;;;;5050709;28;20017;-71
2022/09/10 01:14:52;;;;;;;13.65;10.00;;;15.90;99.90;;;;;;5049993;28;20075;-70
2022/09/10 01:17:37;;;;;;;20.25;12.20;;;16.00;99.90;;;;;;5050199;28;20032;-70
2022/09/10 01:20:43;;;;;;;14.68;11.45;;;15.90;99.90;;;;;;5048892;28;20059;-70
2022/09/10 01:23:46;;;;;;;15.45;10.70;;;15.90;99.90;;;;;;5048558;28;20055;-70
2022/09/10 01:26:48;;;;;;;20.67;11.50;;;15.90;99.90;;;;;;5050239;28;20017;-70
2022/09/10 01:29:47;;;;;;;13.45;10.98;;;15.90;99.90;;;;;;5049734;28;20028;-70
2022/09/10 01:32:19;;;;;;;18.27;13.10;;;15.90;99.90;;;;;;5049929;28;20029;-71
2022/09/10 01:35:22;;;;;;;15.57;13.20;;;15.90;99.90;;;;;;5050532;28;20021;-71
2022/09/10 01:37:55;;;;;;;21.20;14.77;;;15.90;99.90;;;;;;5050443;28;20025;-71
2022/09/10 01:40:28;;;;;;;18.93;13.90;;;15.80;99.90;;;;;;5049782;28;20512;-71
2022/09/10 01:43:02;;;;;;;21.80;15.30;;;15.90;99.90;;;;;;5048601;28;20021;-71
2022/09/10 01:45:28;;;;;;;15.77;14.07;;;15.90;99.90;;;;;;5049710;28;20086;-71
2022/09/10 01:48:02;;;;;;;18.50;15.50;;;15.90;99.90;;;;;;5050080;28;20021;-71
2022/09/10 01:50:38;;;;;;;;;;;15.90;99.90;;;;;;5050118;28;20055;-71
2022/09/10 01:53:46;;;;;;;24.52;15.00;;;15.90;99.90;;;;;;5050035;28;19912;-71
2022/09/10 01:56:36;;;;;;;25.90;17.83;;;16.00;99.90;;;;;;4990887;28;20096;-71
2022/09/10 01:59:13;;;;;;;22.88;16.35;;;16.00;99.90;;;;;;5007462;28;20043;-71
2022/09/10 02:01:54;;;;;;;18.58;16.38;;;15.90;99.90;;;;;;4991673;28;20510;-71
2022/09/10 02:04:21;;;;;;;21.88;16.80;;;16.00;99.90;;;;;;5007327;28;20029;-71
2022/09/10 02:06:50;;;;;;;25.73;16.08;;;16.10;99.90;;;;;;4991382;28;20038;-71
2022/09/10 02:09:17;;;;;;;22.17;15.98;;;16.00;99.90;;;;;;5007164;28;20091;-70
2022/09/10 02:11:46;;;;;;;19.95;15.75;;;16.00;99.90;;;;;;5007622;28;20032;-71
2022/09/10 02:14:13;;;;;;;23.05;16.40;;;15.90;99.90;;;;;;5006512;28;20444;-71
2022/09/10 02:16:43;;;;;;;24.30;17.38;;;16.00;99.90;;;;;;5007994;28;20030;-70
2022/09/10 02:19:10;;;;;;;23.63;16.02;;;16.00;99.90;;;;;;5007484;28;20061;-71
2022/09/10 02:21:36;;;;;;;18.77;15.60;;;16.10;99.90;;;;;;5007716;28;20022;-70
2022/09/10 02:24:08;;;;;;;23.08;16.55;;;16.00;99.90;;;;;;4990999;28;20030;-71
2022/09/10 02:26:37;;;;;;;20.13;15.30;;;16.10;99.90;;;;;;5006771;28;20109;-71
2022/09/10 02:29:03;;;;;;;18.38;16.17;;;17.20;99.90;;;;;;5007494;28;20030;-71
2022/09/10 02:31:29;;;;;;;20.88;17.67;;;15.90;99.90;;;;;;4990823;28;20435;-71
2022/09/10 02:33:54;;;;;;;21.75;15.80;;;16.00;99.90;;;;;;5051596;28;20042;-71
2022/09/10 02:36:24;;;;;;;23.98;16.70;;;16.10;99.90;;;;;;5057665;28;20047;-72
2022/09/10 02:38:52;;;;;;;19.15;15.38;;;16.00;99.90;;;;;;5049400;28;20053;-71
2022/09/10 02:41:17;;;;;;;20.65;15.60;;;16.00;99.90;;;;;;5048300;28;20029;-71
2022/09/10 02:43:45;;;;;;;16.50;14.77;;;15.90;99.90;;;;;;5048679;28;20033;-71
2022/09/10 02:46:11;;;;;;;22.10;15.38;;;15.90;99.90;;;;;;5048817;28;20458;-71
2022/09/10 02:48:38;;;;;;;16.23;14.43;;;15.90;99.90;;;;;;5048774;28;20013;-71
2022/09/10 02:51:04;;;;;;;16.60;14.85;;;15.90;99.90;;;;;;5048454;28;20104;-71
2022/09/10 02:53:30;;;;;;;18.17;16.33;;;15.90;99.90;;;;;;5048356;28;20402;-71
2022/09/10 02:55:56;;;;;;;22.15;15.68;;;15.90;99.90;;;;;;5042594;28;20033;-71
2022/09/10 02:58:22;;;;;;;21.05;14.90;;;15.90;99.90;;;;;;5045127;28;20033;-71
2022/09/10 03:00:47;;;;;;;19.25;15.68;;;15.90;99.90;;;;;;5049142;28;20021;-71
2022/09/10 03:03:13;;;;;;;15.02;13.30;;;15.80;99.90;;;;;;5048623;28;20040;-68
2022/09/10 03:05:40;;;;;;;17.33;15.52;;;15.90;99.90;;;;;;5048987;28;20316;-70
2022/09/10 03:08:06;;;;;;;18.17;16.25;;;15.90;99.90;;;;;;5037820;28;20029;-70
2022/09/10 03:10:32;;;;;;;20.60;15.77;;;15.80;99.90;;;;;;5044251;28;20478;-70
2022/09/10 03:12:58;;;;;;;21.92;17.40;;;15.80;99.90;;;;;;5048973;28;20158;-70
2022/09/10 03:15:24;;;;;;;18.25;16.27;;;15.80;99.90;;;;;;5053374;28;20027;-70
2022/09/10 03:17:51;;;;;;;18.85;16.85;;;15.90;99.90;;;;;;5051008;28;20436;-70
2022/09/10 03:20:17;;;;;;;20.10;17.42;;;15.90;99.90;;;;;;5052376;28;20037;-70
2022/09/10 03:22:43;;;;;;;20.95;16.48;;;15.80;99.90;;;;;;5052867;28;20021;-70
2022/09/10 03:25:09;;;;;;;19.85;17.85;;;15.90;99.90;;;;;;5052243;28;20075;-71
2022/09/10 03:27:35;;;;;;;20.77;17.92;;;16.20;99.90;;;;;;5052818;28;20029;-70
2022/09/10 03:30:01;;;;;;;22.25;18.48;;;15.90;99.90;;;;;;5052648;28;20428;-70
2022/09/10 03:32:27;;;;;;;21.77;17.10;;;16.90;99.90;;;;;;5052519;28;20059;-70
2022/09/10 03:34:53;;;;;;;17.75;15.23;;;15.90;99.90;;;;;;5052887;28;20033;-70
2022/09/10 03:37:18;;;;;;;19.77;17.63;;;16.00;99.90;;;;;;5044638;28;20035;-70
2022/09/10 03:39:44;;;;;;;23.63;17.27;;;15.90;99.90;;;;;;5052229;28;20068;-70
2022/09/10 03:42:09;;;;;;;19.70;17.63;;;17.30;99.90;;;;;;5052401;28;20438;-70
2022/09/10 03:44:35;;;;;;;22.27;16.88;;;15.90;99.90;;;;;;5051191;28;20039;-70
2022/09/10 03:47:01;;;;;;;21.02;16.65;;;16.00;99.90;;;;;;5052058;28;20021;-70
2022/09/10 03:49:27;;;;;;;23.08;16.25;;;16.00;99.90;;;;;;5052187;28;20558;-70
2022/09/10 03:51:53;;;;;;;23.35;17.70;;;15.90;99.90;;;;;;5052489;28;20029;-70
2022/09/10 03:54:19;;;;;;;27.27;19.50;;;16.00;99.90;;;;;;5051415;28;20082;-70
2022/09/10 03:56:44;;;;;;;19.23;17.17;;;16.00;99.90;;;;;;5052357;28;20135;-70
2022/09/10 03:59:13;;;;;;;22.27;16.63;;;16.00;99.90;;;;;;5050363;28;20604;-70
2022/09/10 04:01:40;;;;;;;18.13;16.17;;;16.00;99.90;;;;;;5052318;28;20092;-70
2022/09/10 04:04:07;;;;;;;20.00;18.00;;;15.90;99.90;;;;;;5052001;28;20041;-70
2022/09/10 04:06:33;;;;;;;22.35;17.08;;;16.00;99.90;;;;;;5046364;28;20078;-70
2022/09/10 04:09:00;;;;;;;20.90;17.35;;;16.00;99.90;;;;;;5035766;28;20022;-70
2022/09/10 04:11:26;;;;;;;20.00;17.38;;;16.10;99.90;;;;;;5051112;28;20039;-69
2022/09/10 04:13:52;;;;;;;21.90;16.83;;;16.10;99.90;;;;;;5052207;28;20072;-70
2022/09/10 04:16:18;;;;;;;18.65;15.75;;;16.00;99.90;;;;;;5051567;28;20017;-70
2022/09/10 04:18:44;;;;;;;22.65;17.05;;;16.10;99.90;;;;;;5051804;28;20147;-70
2022/09/10 04:21:10;;;;;;;22.60;18.33;;;16.10;99.90;;;;;;5049845;28;20111;-70
2022/09/10 04:23:36;;;;;;;21.88;18.10;;;16.00;99.90;;;;;;5051199;28;20024;-70
2022/09/10 04:26:13;;;;;;;21.52;16.17;;;16.00;99.90;;;;;;5051568;28;20096;-70
2022/09/10 04:28:39;;;;;;;20.00;16.98;;;16.10;99.90;;;;;;5050674;28;20021;-70
2022/09/10 04:31:05;;;;;;;18.45;16.67;;;16.40;99.90;;;;;;5051666;28;20074;-70
2022/09/10 04:33:32;;;;;;;19.75;17.80;;;16.20;99.90;;;;;;5049802;28;20033;-70
2022/09/10 04:35:59;;;;;;;16.83;15.02;;;16.10;99.90;;;;;;5048331;28;20037;-70
2022/09/10 04:38:26;;;;;;;19.63;17.60;;;16.20;99.90;;;;;;5044544;28;20453;-70
2022/09/10 04:40:51;;;;;;;22.00;17.20;;;16.50;99.90;;;;;;5051568;28;20065;-70
2022/09/10 04:43:17;;;;;;;18.02;16.00;;;16.20;99.90;;;;;;5051076;28;20028;-70
2022/09/10 04:45:43;;;;;;;18.63;16.70;;;16.20;99.90;;;;;;5051339;28;20025;-70
2022/09/10 04:48:09;;;;;;;19.88;17.60;;;16.20;99.90;;;;;;5051379;28;20100;-70
2022/09/10 04:50:34;;;;;;;18.83;16.83;;;16.30;99.90;;;;;;5051007;28;20431;-70
2022/09/10 04:53:00;;;;;;;19.90;17.48;;;16.20;99.90;;;;;;5051010;28;20025;-70
2022/09/10 04:55:26;;;;;;;16.85;14.85;;;16.20;99.90;;;;;;5050610;28;20056;-70
2022/09/10 04:57:53;;;;;;;20.48;16.23;;;16.60;99.90;;;;;;5037359;28;20048;-70
2022/09/10 05:00:18;;;;;;;25.83;18.35;;;16.20;99.90;;;;;;5049224;28;20028;-70
2022/09/10 05:02:45;;;;;;;20.50;18.25;;;16.20;99.90;;;;;;5050965;28;20024;-70
2022/09/10 05:05:10;;;;;;;17.50;15.57;;;16.20;99.90;;;;;;5050630;28;20020;-70
2022/09/10 05:07:36;;;;;;;17.13;15.50;;;16.20;99.90;;;;;;5039476;28;20498;-70
2022/09/10 05:10:01;;;;;;;18.83;16.95;;;16.20;99.90;;;;;;5037222;28;20029;-70
2022/09/10 05:12:27;;;;;;;20.17;16.10;;;16.20;99.90;;;;;;5038190;28;20028;-69
2022/09/10 05:14:53;;;;;;;19.13;16.77;;;17.40;99.90;;;;;;5056819;28;20032;-70
2022/09/10 05:17:19;;;;;;;19.73;16.85;;;16.20;99.90;;;;;;5063823;28;20029;-70
2022/09/10 05:19:45;;;;;;;21.63;16.45;;;17.30;99.90;;;;;;5050678;28;20397;-70
2022/09/10 05:22:10;;;;;;;18.67;16.85;;;16.30;99.90;;;;;;5062260;28;20017;-70
2022/09/10 05:24:36;;;;;;;20.40;15.35;;;16.30;99.90;;;;;;5059512;28;20340;-71
2022/09/10 05:27:01;;;;;;;19.77;15.32;;;16.30;99.90;;;;;;5054811;28;20207;-71
2022/09/10 05:29:27;;;;;;;17.90;16.20;;;16.30;99.90;;;;;;5070189;28;20094;-70
2022/09/10 05:31:52;;;;;;;18.90;16.95;;;16.30;99.90;;;;;;5056738;28;20084;-70
2022/09/10 05:34:19;;;;;;;18.00;15.95;;;16.30;99.90;;;;;;5048435;28;20021;-70
2022/09/10 05:36:44;;;;;;;18.67;16.70;;;16.30;99.90;;;;;;5046533;28;20025;-70
2022/09/10 05:39:10;;;;;;;19.70;16.00;;;16.30;99.90;;;;;;5049411;28;20041;-70
2022/09/10 05:41:36;;;;;;;20.05;15.82;;;16.40;99.90;;;;;;5049812;28;20025;-70
2022/09/10 05:44:02;;;;;;;23.75;17.15;;;16.30;99.90;;;;;;5050167;28;20100;-70
2022/09/10 05:46:29;;;;;;;22.63;17.70;;;16.40;99.90;;;;;;5069832;28;20111;-70
2022/09/10 05:48:55;;;;;;;20.45;17.50;;;16.30;99.90;;;;;;5070099;28;20024;-70
2022/09/10 05:51:21;;;;;;;20.75;18.38;;;16.70;99.90;;;;;;5068835;28;20937;-70
2022/09/10 05:53:46;;;;;;;25.55;17.65;;;17.00;99.90;;;;;;5070023;28;20040;-70
2022/09/10 05:56:12;;;;;;;20.25;17.25;;;16.20;99.90;;;;;;5069143;28;20498;-70
2022/09/10 05:58:37;;;;;;;23.50;17.15;;;16.10;99.90;;;;;;5070181;28;20079;-70
2022/09/10 06:01:03;;;;;;;21.48;15.43;;;16.20;99.90;;;;;;5069563;28;20123;-70
2022/09/10 06:03:28;;;;;;;22.45;17.73;;;16.10;99.90;;;;;;5069091;28;20437;-69
2022/09/10 06:05:54;;;;;;;17.20;15.07;;;16.10;99.90;;;;;;5060552;28;20096;-69
2022/09/10 06:08:21;;;;;;;16.02;13.77;;;16.10;99.90;;;;;;5047356;28;20447;-69
2022/09/10 06:10:57;;;;;;;12.38;11.15;;;16.00;99.90;;;;;;5060253;28;20028;-69
2022/09/10 06:13:23;;;;;;;13.27;11.98;;;15.90;99.90;;;;;;5069281;28;20499;-69
2022/09/10 06:15:49;;;;;;;16.70;12.68;;;15.80;99.90;;;;;;5069745;28;20024;-69
2022/09/10 06:18:15;;;;;;;17.35;14.80;;;15.80;99.90;;;;;;5054289;28;20458;-69
2022/09/10 06:20:40;;;;;;;16.48;14.77;;;15.80;99.90;;;;;;5069734;28;20024;-69
2022/09/10 06:23:06;;;;;;;21.10;14.07;;;15.70;99.90;;;;;;5069586;28;20046;-69
2022/09/10 06:25:31;;;;;;;17.35;14.52;;;15.70;99.90;;;;;;5069067;28;20025;-69
2022/09/10 06:27:57;;;;;;;16.77;13.32;;;15.80;99.90;;;;;;5069827;28;20028;-69
2022/09/10 06:30:22;;;;;;;13.15;10.93;;;15.90;99.90;;;;;;5068996;28;20147;-70
2022/09/10 06:32:48;;;;;;;11.57;10.43;;;16.50;99.90;;;;;;5069132;28;20027;-69
2022/09/10 06:35:13;;;;;;;11.50;10.20;;;15.80;99.90;;;;;;5054626;28;20089;-69
2022/09/10 06:37:39;;;;;;;13.15;10.98;;;16.40;99.90;;;;;;5038320;28;20063;-70
2022/09/10 06:40:05;;;;;;;13.25;11.57;;;16.50;99.90;;;;;;5061935;28;20036;-70
2022/09/10 06:42:31;;;;;;;16.20;14.30;;;15.80;99.90;;;;;;5068961;28;20323;-69
2022/09/10 06:44:58;;;;;;;22.38;16.88;;;15.90;99.90;;;;;;5069445;28;20013;-70
2022/09/10 06:47:25;;;;;;;22.20;17.73;;;15.90;99.90;;;;;;5068268;28;20024;-70
2022/09/10 06:49:51;;;;;;;21.58;18.92;;;15.90;99.90;;;;;;5069310;28;20095;-70
2022/09/10 06:52:16;;;;;;;27.65;19.52;;;15.80;99.90;;;;;;5069717;28;20027;-69
2022/09/10 06:54:42;;;;;;;23.83;19.83;;;15.90;99.90;;;;;;5073542;28;20396;-69
2022/09/10 06:57:10;;;;;;;25.48;20.38;;;15.80;99.90;;;;;;5065101;28;20045;-69
2022/09/10 06:59:36;;;;;;;24.70;19.92;;;15.90;99.90;;;;;;5052531;28;20033;-69
2022/09/10 07:02:01;;;;;;;25.17;21.05;;;16.10;99.90;;;;;;5056489;28;20025;-69
2022/09/10 07:04:27;;;;;;;26.83;20.25;;;15.90;99.90;;;;;;5056663;28;20036;-69
2022/09/10 07:06:53;;;;;;;29.42;21.77;;;16.10;99.90;;;;;;5048411;28;20036;-70
2022/09/10 07:09:19;;;;;;;27.20;21.63;;;16.00;99.90;;;;;;5043735;28;20032;-69
2022/09/10 07:11:44;;;;;;;26.35;20.98;;;16.00;99.90;;;;;;5053919;28;20021;-69
2022/09/10 07:14:11;;;;;;;28.40;22.20;;;16.00;99.90;;;;;;5053076;28;20029;-69
2022/09/10 07:16:40;;;;;;;24.50;20.48;;;16.00;99.90;;;;;;5052848;28;20037;-69
2022/09/10 07:19:06;;;;;;;29.83;21.60;;;16.00;99.90;;;;;;5045867;28;20063;-69
2022/09/10 07:21:31;;;;;;;34.20;24.17;;;16.00;99.90;;;;;;5047024;28;20474;-69
2022/09/10 07:24:00;;;;;;;28.83;24.00;;;16.00;99.90;;;;;;5048301;28;20123;-70
2022/09/10 07:26:25;;;;;;;28.85;22.60;;;16.10;99.90;;;;;;5052030;28;20039;-70
2022/09/10 07:28:51;;;;;;;25.15;22.35;;;16.00;99.90;;;;;;5052076;28;20100;-70
2022/09/10 07:31:28;;;;;;;25.50;22.73;;;16.10;99.90;;;;;;5051647;28;20040;-71
2022/09/10 07:33:56;;;;;;;26.73;22.40;;;16.20;99.90;;;;;;5053857;28;20024;-70
2022/09/10 07:36:22;;;;;;;28.98;24.60;;;16.20;99.90;;;;;;5043775;28;20021;-70
2022/09/10 07:38:53;;;;;;;33.03;24.98;;;17.10;99.90;;;;;;5052318;28;20068;-70
2022/09/10 07:41:18;;;;;;;28.27;21.33;;;16.20;99.90;;;;;;5048545;28;20074;-70
2022/09/10 07:43:44;;;;;;;29.25;24.80;;;16.20;99.90;;;;;;5052141;28;20417;-70
2022/09/10 07:46:12;;;;;;;29.70;23.08;;;16.30;99.90;;;;;;5051358;28;20025;-70
2022/09/10 07:48:40;;;;;;;28.50;23.60;;;16.30;99.90;;;;;;5052025;28;20478;-70
2022/09/10 07:51:07;;;;;;;26.08;23.13;;;16.30;99.90;;;;;;5051956;28;20150;-70
2022/09/10 07:53:33;;;;;;;31.40;25.23;;;16.40;99.90;;;;;;5060984;28;20043;-70
2022/09/10 07:56:04;;;;;;;27.13;24.08;;;16.40;99.90;;;;;;5053021;28;20473;-71
2022/09/10 07:58:31;;;;;;;30.08;23.77;;;16.70;99.90;;;;;;5053311;28;20080;-70
2022/09/10 08:01:05;;;;;;;26.55;23.73;;;16.60;99.90;;;;;;5055083;28;20023;-70
2022/09/10 08:03:30;;;;;;;27.65;23.73;;;16.80;99.90;;;;;;5051573;28;20036;-70
2022/09/10 08:06:03;;;;;;;26.38;22.25;;;16.90;99.90;;;;;;5051954;28;20473;-70
2022/09/10 08:08:30;;;;;;;26.17;23.38;;;17.00;99.90;;;;;;5051688;28;20021;-70
2022/09/10 08:11:11;;;;;;;26.75;22.65;;;17.30;99.90;;;;;;5051694;28;20118;-70
2022/09/10 08:13:41;;;;;;;26.55;22.35;;;17.50;99.90;;;;;;5050554;28;20162;-69
2022/09/10 08:16:08;;;;;;;24.13;21.63;;;17.50;99.90;;;;;;5051194;28;20450;-70
2022/09/10 08:18:34;;;;;;;26.15;23.35;;;17.60;99.90;;;;;;5054736;28;20035;-70
2022/09/10 08:21:01;;;;;;;24.90;22.63;;;17.80;99.90;;;;;;5071944;28;20074;-70
2022/09/10 08:23:27;;;;;;;25.75;23.13;;;17.80;99.90;;;;;;5070995;28;20159;-70
2022/09/10 08:25:53;;;;;;;26.00;21.60;;;17.90;99.90;;;;;;5071673;28;20410;-70
2022/09/10 08:28:20;;;;;;;21.83;19.70;;;17.90;99.90;;;;;;5071155;28;20086;-70
2022/09/10 08:31:03;;;;;;;23.48;21.17;;;17.90;99.90;;;;;;5066520;28;20021;-70
2022/09/10 08:33:30;;;;;;;23.70;21.23;;;17.90;99.90;;;;;;5051499;28;20163;-70
2022/09/10 08:35:59;;;;;;;21.67;19.58;;;18.00;99.90;;;;;;5046780;28;20371;-70
2022/09/10 08:38:29;;;;;;;23.17;20.77;;;17.90;99.90;;;;;;5042490;28;20037;-70
2022/09/10 08:40:56;;;;;;;22.52;20.00;;;17.80;99.90;;;;;;5051303;28;20096;-70
2022/09/10 08:43:37;;;;;;;23.83;21.48;;;17.70;99.90;;;;;;5050868;28;20028;-70
2022/09/10 08:46:09;;;;;;;23.45;20.98;;;17.80;99.90;;;;;;5051285;28;20032;-70
2022/09/10 08:48:38;;;;;;;23.63;21.23;;;17.90;99.90;;;;;;5051009;28;20025;-70
2022/09/10 08:51:17;;;;;;;25.13;22.58;;;18.00;99.90;;;;;;5050883;28;20263;-70
2022/09/10 08:53:52;;;;;;;25.55;23.17;;;18.20;99.90;;;;;;5051299;28;20036;-70
2022/09/10 08:56:22;;;;;;;24.42;22.00;;;18.20;99.90;;;;;;5050327;28;20049;-70
2022/09/10 08:58:58;;;;;;;23.35;21.20;;;18.40;99.90;;;;;;5050635;28;20040;-70
2022/09/10 09:01:27;;;;;;;25.23;22.88;;;18.50;99.90;;;;;;5048732;28;20048;-70
2022/09/10 09:03:56;;;;;;;24.33;22.05;;;18.60;99.90;;;;;;5058486;28;20018;-70
2022/09/10 09:06:56;;;;;;;23.23;21.33;;;18.70;99.90;;;;;;5050130;28;20024;-70
2022/09/10 09:09:22;;;;;;;25.77;23.45;;;18.80;99.90;;;;;;4972082;28;20031;-70
2022/09/10 09:12:00;;;;;;;26.88;24.60;;;18.90;99.90;;;;;;4969777;28;20078;-70
2022/09/10 09:14:44;;;;;;;26.80;24.42;;;19.10;99.90;;;;;;4966433;28;20069;-70
2022/09/10 09:17:12;;;;;;;;;;;19.30;99.90;;;;;;4950462;28;20078;-71
2022/09/10 09:19:57;;;;;;;26.00;23.48;;;19.60;99.90;;;;;;4955180;28;20391;-70
2022/09/10 09:22:51;;;;;;;27.60;25.02;;;19.70;99.90;;;;;;4977930;28;20034;-71
2022/09/10 09:25:45;;;;;;;26.15;23.75;;;19.90;99.90;;;;;;4958747;28;20512;-71
2022/09/10 09:28:19;;;;;;;23.17;21.05;;;19.80;99.90;;;;;;4961950;28;20113;-71
2022/09/10 09:30:48;;;;;;;26.83;24.52;;;19.80;99.90;;;;;;4968847;28;20062;-71
2022/09/10 09:33:17;;;;;;;28.67;25.25;;;19.80;99.90;;;;;;4978022;28;20104;-70
2022/09/10 09:35:49;;;;;;;26.85;24.23;;;19.80;99.90;;;;;;4970943;28;20592;-70
2022/09/10 09:38:22;;;;;;;27.92;25.10;;;19.30;99.90;;;;;;4972977;28;20396;-70
2022/09/10 09:40:55;;;;;;;25.50;23.38;;;18.90;99.90;;;;;;4964055;28;20030;-70
2022/09/10 09:43:30;;;;;;;26.85;24.13;;;18.70;99.90;;;;;;4989367;28;20458;-70
2022/09/10 09:45:56;;;;;;;28.58;25.92;;;18.70;99.90;;;;;;5057034;28;20029;-70
2022/09/10 09:48:23;;;;;;;27.83;25.17;;;18.50;99.90;;;;;;5049399;28;20028;-70
2022/09/10 09:50:52;;;;;;;27.10;24.42;;;18.30;99.90;;;;;;5052611;28;20111;-69
2022/09/10 09:53:26;;;;;;;25.38;23.15;;;18.20;99.90;;;;;;5048232;28;20506;-70
2022/09/10 09:55:57;;;;;;;19.75;18.20;;;18.10;99.90;;;;;;5047127;28;20048;-70
2022/09/10 09:58:23;;;;;;;18.08;16.58;;;17.80;99.90;;;;;;5049142;28;20273;-70
2022/09/10 10:01:02;;;;;;;14.70;13.57;;;17.80;99.90;;;;;;5045842;28;20076;-70
2022/09/10 10:03:29;;;;;;;14.73;13.52;;;17.70;99.90;;;;;;5036023;28;20458;-70
2022/09/10 10:06:07;;;;;;;12.90;11.88;;;17.70;99.90;;;;;;5048512;28;20082;-70
2022/09/10 10:08:39;;;;;;;12.95;11.75;;;17.70;99.90;;;;;;5049463;28;20096;-70
2022/09/10 10:11:06;;;;;;;15.57;14.18;;;17.70;99.90;;;;;;5049317;28;20029;-70
2022/09/10 10:13:38;;;;;;;14.10;12.77;;;17.60;99.90;;;;;;5046393;28;20036;-70
2022/09/10 10:16:16;;;;;;;14.27;13.07;;;17.70;99.90;;;;;;5049339;28;20128;-70
2022/09/10 10:18:43;;;;;;;14.73;13.38;;;17.60;99.90;;;;;;5054274;28;20033;-70
2022/09/10 10:21:11;;;;;;;14.35;13.23;;;17.60;99.90;;;;;;5069514;28;20430;-70
2022/09/10 10:23:37;;;;;;;16.33;14.93;;;17.70;99.90;;;;;;5069507;28;20024;-70
2022/09/10 10:26:29;;;;;;;17.08;15.60;;;17.70;99.90;;;;;;5053809;28;20032;-70
2022/09/10 10:28:57;;;;;;;14.65;13.50;;;17.90;99.90;;;;;;5050152;28;20067;-70
2022/09/10 10:31:30;;;;;;;14.77;13.30;;;18.10;99.90;;;;;;5043860;28;20108;-70
2022/09/10 10:34:02;;;;;;;13.27;12.23;;;18.20;99.90;;;;;;5065502;28;20017;-71
2022/09/10 10:36:39;;;;;;;13.05;11.95;;;18.30;99.90;;;;;;5065581;28;20050;-70
2022/09/10 10:39:43;;;;;;;13.02;12.02;;;19.10;99.90;;;;;;5053138;28;20055;-70
2022/09/10 10:42:12;;;;;;;14.95;13.48;;;18.20;99.90;;;;;;5012479;28;20157;-71
2022/09/10 10:45:09;;;;;;;13.27;12.18;;;18.10;99.90;;;;;;5005967;28;20052;-71
2022/09/10 10:47:52;;;;;;;13.98;12.88;;;18.10;99.90;;;;;;5008117;28;20025;-70
2022/09/10 10:50:47;;;;;;;12.55;11.38;;;18.10;99.90;;;;;;5006020;28;20125;-71
2022/09/10 10:53:36;;;;;;;12.98;11.98;;;18.10;99.90;;;;;;5006100;28;20072;-74
2022/09/10 10:56:36;;;;;;;12.13;11.13;;;18.00;99.90;;;;;;4996359;28;20049;-72
2022/09/10 10:59:03;;;;;;;13.70;12.65;;;18.30;99.90;;;;;;5003493;28;20054;-71
2022/09/10 11:01:34;;;;;;;11.82;10.82;;;18.40;99.90;;;;;;5003331;28;20033;-70
2022/09/10 11:04:29;;;;;;;11.82;10.70;;;18.60;99.90;;;;;;5004642;28;20050;-71
2022/09/10 11:07:07;;;;;;;12.20;11.20;;;18.60;99.90;;;;;;4994424;28;20120;-71
2022/09/10 11:09:42;;;;;;;12.43;11.43;;;18.70;99.90;;;;;;5003453;28;20053;-70
2022/09/10 11:12:18;;;;;;;12.65;11.65;;;18.70;99.90;;;;;;4997899;28;20497;-71
2022/09/10 11:14:48;;;;;;;12.43;11.25;;;18.70;99.90;;;;;;5004331;28;20039;-71
2022/09/10 11:17:17;;;;;;;13.65;12.45;;;18.60;99.90;;;;;;5016431;28;20033;-70
2022/09/10 11:19:52;;;;;;;13.60;12.30;;;18.50;99.90;;;;;;5062030;28;20076;-70
2022/09/10 11:22:24;;;;;;;14.48;13.18;;;18.50;99.90;;;;;;5058087;28;20035;-70
2022/09/10 11:24:57;;;;;;;13.32;12.30;;;18.60;99.90;;;;;;5041769;28;20029;-71
2022/09/10 11:27:42;;;;;;;15.15;13.82;;;18.70;99.90;;;;;;5049022;28;20071;-71
2022/09/10 11:30:15;;;;;;;13.43;12.23;;;18.90;99.90;;;;;;5051885;28;20025;-70
2022/09/10 11:33:03;;;;;;;13.50;12.40;;;19.20;99.90;;;;;;5056410;28;20021;-71
2022/09/10 11:35:36;;;;;;;12.25;11.27;;;19.00;99.90;;;;;;5067714;28;20479;-70
2022/09/10 11:38:23;;;;;;;12.23;11.13;;;19.10;99.90;;;;;;5050283;28;20053;-70
2022/09/10 11:41:04;;;;;;;11.52;10.52;;;19.30;99.90;;;;;;5052841;28;20109;-70
2022/09/10 11:43:59;;;;;;;11.15;10.23;;;19.30;99.90;;;;;;5064786;28;20021;-70
2022/09/10 11:46:59;;;;;;;9.70;8.90;;;19.70;99.90;;;;;;5041645;28;20054;-71
2022/09/10 11:49:53;;;;;;;9.77;8.95;;;19.80;99.90;;;;;;5037311;28;20033;-70
2022/09/10 11:52:20;;;;;;;11.23;10.38;;;19.70;99.90;;;;;;5055587;28;20048;-70
2022/09/10 11:54:46;;;;;;;15.02;13.63;;;19.60;99.90;;;;;;5057908;28;20291;-70
2022/09/10 11:57:43;;;;;;;7.57;6.97;;;19.40;99.90;;;;;;5051280;28;20494;-71
2022/09/10 12:00:15;;;;;;;3.80;3.47;;;19.60;99.90;;;;;;5040911;28;20048;-70
2022/09/10 12:03:12;;;;;;;2.88;2.67;;;19.50;99.90;;;;;;5051440;28;20450;-70
2022/09/10 12:06:00;;;;;;;3.08;2.35;;;19.40;99.90;;;;;;5054033;28;20032;-71
2022/09/10 12:08:44;;;;;;;3.22;2.13;;;19.40;99.90;;;;;;5040890;28;20489;-70
2022/09/10 12:11:23;;;;;;;3.28;2.63;;;19.30;99.90;;;;;;5049810;28;20033;-71
2022/09/10 12:13:51;;;;;;;2.17;2.08;;;19.30;99.90;;;;;;5042946;28;20032;-71
2022/09/10 12:16:19;;;;;;;2.65;2.45;;;19.40;99.90;;;;;;5051355;28;20111;-71
2022/09/10 12:18:50;;;;;;;3.08;2.88;;;19.40;99.90;;;;;;5052132;28;20112;-70
2022/09/10 12:21:33;;;;;;;3.40;3.08;;;19.30;99.90;;;;;;5050682;28;20074;-71
2022/09/10 12:24:02;;;;;;;2.97;2.78;;;19.70;99.90;;;;;;5051644;28;20021;-71
2022/09/10 12:26:28;;;;;;;2.45;2.25;;;19.70;99.90;;;;;;5042101;28;20026;-70
2022/09/10 12:28:59;;;;;;;1.77;1.67;;;19.70;99.90;;;;;;5049440;28;20537;-71
2022/09/10 12:31:26;;;;;;;1.23;1.13;;;19.70;99.90;;;;;;5050692;28;20114;-70
2022/09/10 12:33:53;;;;;;;2.40;1.38;;;19.70;99.90;;;;;;5051578;28;20017;-70
2022/09/10 12:36:27;;;;;;;2.40;2.17;;;19.80;99.90;;;;;;5050589;28;20115;-70
2022/09/10 12:39:21;;;;;;;1.55;1.40;;;19.70;99.90;;;;;;5050441;28;20094;-71
2022/09/10 12:41:46;;;;;;;2.30;1.92;;;19.80;99.90;;;;;;5038640;28;20026;-70
2022/09/10 12:44:26;;;;;;;1.58;1.48;;;20.60;99.90;;;;;;5050803;28;20090;-70
2022/09/10 12:47:13;;;;;;;1.40;1.30;;;20.00;99.90;;;;;;5051074;28;20143;-71
2022/09/10 12:49:46;;;;;;;1.60;1.50;;;20.10;99.90;;;;;;5049751;28;20036;-71
2022/09/10 12:52:16;;;;;;;2.67;1.80;;;20.30;99.90;;;;;;5050415;28;20033;-71